createdAt,value
2024-01-30T00:00:26.803Z,55.67
2024-01-30T00:03:12.056Z,55.69
2024-01-30T00:05:59.606Z,56.98
2024-01-30T00:08:45.128Z,56.45
2024-01-30T00:11:30.027Z,55.70
2024-01-30T00:14:15.340Z,57.78
2024-01-30T00:17:00.481Z,59.47
2024-01-30T00:19:45.477Z,57.76
2024-01-30T00:22:30.672Z,57.09
2024-01-30T00:25:15.877Z,57.19
2024-01-30T00:28:01.023Z,56.94
2024-01-30T00:30:46.135Z,57.97
2024-01-30T00:33:31.498Z,57.67
2024-01-30T00:36:16.656Z,58.67
2024-01-30T00:39:01.854Z,60.20
2024-01-30T00:41:48.122Z,59.78
2024-01-30T00:44:32.987Z,60.62
2024-01-30T00:47:18.078Z,61.04
2024-01-30T00:50:03.214Z,59.18
2024-01-30T00:52:48.346Z,58.53
2024-01-30T00:55:33.646Z,59.37
2024-01-30T00:58:18.828Z,60.75
2024-01-30T01:01:04.233Z,60.57
2024-01-30T01:03:49.335Z,60.49
2024-01-30T01:06:34.827Z,58.99
2024-01-30T01:09:19.926Z,58.09
2024-01-30T01:12:05.043Z,58.81
2024-01-30T01:14:50.258Z,59.53
2024-01-30T01:17:35.324Z,59.91
2024-01-30T01:20:20.477Z,58.95
2024-01-30T01:23:05.569Z,58.93
2024-01-30T01:25:50.712Z,59.19
2024-01-30T01:28:35.928Z,60.18
2024-01-30T01:31:21.211Z,57.82
2024-01-30T01:34:06.426Z,58.94
2024-01-30T01:36:51.499Z,58.15
2024-01-30T01:39:36.587Z,59.26
2024-01-30T01:42:21.694Z,58.49
2024-01-30T01:45:06.829Z,59.08
2024-01-30T01:47:52.020Z,60.28
2024-01-30T01:50:37.209Z,59.16
2024-01-30T01:53:22.166Z,59.70
2024-01-30T01:56:07.255Z,59.49
2024-01-30T01:58:52.436Z,60.30
2024-01-30T02:01:37.655Z,61.34
2024-01-30T02:04:25.827Z,59.75
2024-01-30T02:07:11.238Z,59.99
2024-01-30T02:09:56.226Z,61.17
2024-01-30T02:12:41.411Z,59.52
2024-01-30T02:15:26.514Z,58.84
2024-01-30T02:18:11.905Z,59.66
2024-01-30T02:20:57.109Z,58.93
2024-01-30T02:23:42.169Z,58.66
2024-01-30T02:26:27.443Z,59.00
2024-01-30T02:29:12.483Z,59.46
2024-01-30T02:31:57.674Z,58.41
2024-01-30T02:34:42.897Z,58.89
2024-01-30T02:37:28.053Z,59.89
2024-01-30T02:40:13.280Z,58.04
2024-01-30T02:42:58.442Z,59.81
2024-01-30T02:45:43.548Z,59.86
2024-01-30T02:48:28.654Z,60.55
2024-01-30T02:51:13.706Z,61.10
2024-01-30T02:53:58.879Z,59.41
2024-01-30T02:56:44.071Z,59.85
2024-01-30T02:59:29.339Z,59.55
2024-01-30T03:02:14.549Z,59.72
2024-01-30T03:04:59.769Z,59.65
2024-01-30T03:07:44.961Z,58.52
2024-01-30T03:10:30.211Z,60.19
2024-01-30T03:13:15.355Z,60.57
2024-01-30T03:16:00.696Z,60.96
2024-01-30T03:18:45.763Z,61.10
2024-01-30T03:21:31.017Z,59.58
2024-01-30T03:24:16.175Z,59.86
2024-01-30T03:27:01.290Z,60.92
2024-01-30T03:29:46.345Z,61.02
2024-01-30T03:32:31.404Z,59.09
2024-01-30T03:35:16.663Z,58.66
2024-01-30T03:38:01.624Z,58.34
2024-01-30T03:40:46.766Z,59.81
2024-01-30T03:43:31.968Z,60.32
2024-01-30T03:46:17.002Z,61.08
2024-01-30T03:49:02.231Z,60.53
2024-01-30T03:51:47.268Z,61.48
2024-01-30T03:54:32.685Z,60.24
2024-01-30T03:57:17.593Z,60.39
2024-01-30T04:00:03.561Z,60.04
2024-01-30T04:02:48.639Z,60.56
2024-01-30T04:05:33.707Z,61.54
2024-01-30T04:08:18.875Z,59.61
2024-01-30T04:11:03.973Z,59.26
2024-01-30T04:13:49.364Z,60.69
2024-01-30T04:16:34.320Z,61.79
2024-01-30T04:19:19.505Z,61.56
2024-01-30T04:22:04.811Z,62.50
2024-01-30T04:24:49.856Z,61.15
2024-01-30T04:27:35.107Z,62.09
2024-01-30T04:30:19.884Z,61.58
2024-01-30T04:33:05.022Z,60.88
2024-01-30T04:35:50.335Z,60.90
2024-01-30T04:38:35.483Z,60.36
2024-01-30T04:41:20.611Z,60.21
2024-01-30T04:44:05.803Z,59.85
2024-01-30T04:46:51.090Z,59.92
2024-01-30T04:49:36.335Z,60.58
2024-01-30T04:52:21.689Z,59.39
2024-01-30T04:55:07.186Z,61.30
2024-01-30T04:57:52.221Z,61.42
2024-01-30T05:00:37.450Z,61.54
2024-01-30T05:03:22.610Z,61.22
2024-01-30T05:06:07.923Z,61.01
2024-01-30T05:08:52.925Z,60.69
2024-01-30T05:11:38.239Z,60.30
2024-01-30T05:14:23.292Z,60.17
2024-01-30T05:17:10.442Z,59.05
2024-01-30T05:19:55.621Z,58.77
2024-01-30T05:22:40.810Z,59.21
2024-01-30T05:25:26.166Z,60.72
2024-01-30T05:28:11.466Z,59.92
2024-01-30T05:30:56.328Z,58.94
2024-01-30T05:33:41.843Z,59.00
2024-01-30T05:36:26.638Z,59.70
2024-01-30T05:39:11.857Z,60.87
2024-01-30T05:41:56.970Z,60.79
2024-01-30T05:44:42.177Z,61.02
2024-01-30T05:47:27.483Z,60.93
2024-01-30T05:50:12.706Z,60.20
2024-01-30T05:52:58.076Z,58.97
2024-01-30T05:55:43.285Z,59.64
2024-01-30T05:58:28.491Z,60.80
2024-01-30T06:01:13.559Z,60.58
2024-01-30T06:03:58.688Z,59.77
2024-01-30T06:06:51.596Z,60.11
2024-01-30T06:09:36.936Z,60.76
2024-01-30T06:12:22.153Z,61.40
2024-01-30T06:15:07.429Z,59.94
2024-01-30T06:17:52.706Z,61.16
2024-01-30T06:20:37.781Z,60.63
2024-01-30T06:23:25.474Z,60.05
2024-01-30T06:26:13.991Z,60.17
2024-01-30T06:28:59.160Z,62.31
2024-01-30T06:31:44.321Z,58.72
2024-01-30T06:34:29.615Z,56.25
2024-01-30T06:37:14.710Z,54.81
2024-01-30T06:39:59.875Z,54.53
2024-01-30T06:42:45.089Z,54.69
2024-01-30T06:45:30.248Z,54.22
2024-01-30T06:48:15.415Z,54.02
2024-01-30T06:51:28.006Z,55.19
2024-01-30T06:54:13.226Z,55.04
2024-01-30T06:56:58.116Z,54.70
2024-01-30T06:59:43.195Z,53.87
2024-01-30T07:02:28.607Z,53.82
2024-01-30T07:05:13.724Z,52.92
2024-01-30T07:07:59.064Z,52.51
2024-01-30T07:10:44.511Z,52.62
2024-01-30T07:13:35.802Z,52.78
2024-01-30T09:57:21.550Z,58.01
2024-01-30T10:00:18.284Z,60.53
2024-01-30T10:03:10.057Z,59.67
2024-01-30T10:06:09.193Z,59.88
2024-01-30T11:11:21.861Z,58.13
2024-01-30T11:29:16.581Z,63.18
2024-01-30T11:30:47.365Z,62.16
2024-01-30T11:48:41.292Z,56.15
2024-01-30T11:51:26.334Z,57.65
2024-01-30T11:54:13.009Z,57.92
2024-01-30T11:57:04.450Z,58.68
2024-01-30T11:59:49.618Z,55.98
2024-01-30T12:02:41.911Z,55.76
2024-01-30T12:05:37.740Z,55.93
2024-01-30T12:30:33.432Z,59.63
2024-01-30T15:49:53.468Z,52.79
2024-01-30T16:14:32.441Z,51.76
2024-01-30T16:17:17.625Z,55.64
2024-01-30T16:20:05.458Z,56.75
2024-01-30T16:22:52.385Z,56.21
2024-01-30T16:25:38.119Z,56.29
2024-01-30T16:28:23.365Z,57.25
2024-01-30T16:31:08.834Z,56.17
2024-01-30T16:33:56.861Z,58.83
2024-01-30T16:36:42.278Z,58.63
2024-01-30T16:39:27.116Z,56.43
2024-01-30T16:42:12.130Z,54.47
2024-01-30T16:45:03.325Z,53.61
2024-01-30T16:47:49.701Z,54.03
2024-01-30T16:50:45.605Z,52.66
2024-01-30T16:53:30.661Z,52.89
2024-01-30T16:56:18.765Z,53.72
2024-01-30T17:02:19.218Z,56.08
2024-01-30T17:05:20.365Z,56.34
2024-01-30T17:14:49.480Z,58.17
2024-01-30T17:32:44.758Z,56.78
2024-01-30T17:35:33.411Z,56.14
2024-01-30T17:38:18.811Z,55.06
2024-01-30T17:41:09.783Z,55.79
2024-01-30T17:43:57.745Z,58.44
2024-01-30T17:46:48.806Z,58.71
2024-01-30T17:49:34.108Z,57.53
2024-01-30T17:52:21.425Z,57.00
2024-01-30T17:55:06.496Z,57.67
2024-01-30T17:57:51.647Z,57.12
2024-01-30T18:00:36.736Z,57.96
2024-01-30T18:03:23.877Z,57.64
2024-01-30T18:06:16.388Z,57.49
2024-01-30T18:09:05.137Z,56.38
2024-01-30T18:12:00.473Z,56.56
2024-01-30T18:14:47.052Z,56.25
2024-01-30T18:17:34.758Z,57.30
2024-01-30T18:23:23.891Z,61.61
2024-01-30T18:26:09.548Z,61.75
2024-01-30T18:28:55.813Z,59.76
2024-01-30T18:31:40.866Z,58.53
2024-01-30T18:34:26.492Z,57.75
2024-01-30T18:37:13.559Z,59.80
2024-01-30T18:39:58.861Z,60.24
2024-01-30T18:42:45.616Z,58.86
2024-01-30T18:45:30.963Z,58.63
2024-01-30T18:48:18.553Z,59.04
2024-01-30T18:51:03.712Z,58.47
2024-01-30T18:53:48.654Z,57.69
2024-01-30T18:56:33.910Z,57.27
2024-01-30T18:59:21.136Z,57.58
2024-01-30T19:02:06.294Z,56.87
2024-01-30T19:04:53.749Z,58.46
2024-01-30T19:07:39.499Z,57.19
2024-01-30T19:10:32.648Z,57.26
2024-01-30T19:13:24.957Z,57.45
2024-01-30T19:16:10.010Z,57.61
2024-01-30T19:18:55.228Z,56.92
2024-01-30T19:21:44.554Z,57.15
2024-01-30T19:24:42.729Z,56.05
2024-01-30T19:27:29.997Z,56.26
2024-01-30T19:30:15.094Z,57.80
2024-01-30T19:33:02.419Z,58.60
2024-01-30T19:35:47.572Z,56.82
2024-01-30T19:38:32.666Z,57.42
2024-01-30T19:41:20.890Z,57.17
2024-01-30T19:44:07.283Z,56.90
2024-01-30T19:47:00.421Z,56.52
2024-01-30T19:49:45.653Z,56.27
2024-01-30T19:52:36.922Z,55.86
2024-01-30T19:55:23.913Z,55.81
2024-01-30T20:01:11.483Z,57.63
2024-01-30T20:03:56.829Z,56.57
2024-01-30T20:06:43.061Z,56.92
2024-01-30T20:12:41.002Z,56.33
2024-01-30T20:15:26.234Z,58.21
2024-01-30T20:18:21.608Z,57.70
2024-01-30T20:21:07.137Z,56.91
2024-01-30T20:23:52.731Z,56.83
2024-01-30T20:26:42.005Z,56.24
2024-01-30T20:29:29.381Z,56.33
2024-01-30T20:32:14.378Z,55.88
2024-01-30T20:35:06.783Z,55.15
2024-01-30T20:37:53.213Z,55.67
2024-01-30T20:40:43.976Z,56.14
2024-01-30T20:43:28.985Z,56.12
2024-01-30T20:46:14.442Z,57.69
2024-01-30T20:48:59.513Z,56.79
2024-01-30T20:52:00.419Z,56.63
2024-01-30T20:54:46.875Z,58.82
2024-01-30T20:57:35.216Z,59.13
2024-01-30T21:00:29.736Z,57.64
2024-01-30T21:03:14.792Z,57.05
2024-01-30T21:06:00.223Z,56.94
2024-01-30T21:08:52.588Z,56.61
2024-01-30T21:11:46.233Z,58.68
2024-01-30T21:14:31.301Z,57.40
2024-01-30T21:17:16.295Z,58.21
2024-01-30T21:20:03.618Z,57.33
2024-01-30T21:22:50.740Z,56.50
2024-01-30T21:25:36.027Z,57.33
2024-01-30T21:28:21.513Z,56.41
2024-01-30T21:31:07.546Z,56.31
2024-01-30T21:33:52.400Z,56.67
2024-01-30T21:36:37.282Z,56.58
2024-01-30T21:39:22.421Z,59.06
2024-01-30T21:42:07.743Z,58.76
2024-01-30T21:44:52.594Z,57.46
2024-01-30T21:47:37.972Z,57.00
2024-01-30T21:50:23.384Z,59.43
2024-01-30T21:53:08.624Z,58.14
2024-01-30T21:55:53.809Z,57.52
2024-01-30T21:58:39.282Z,56.23
2024-01-30T22:01:24.482Z,55.52
2024-01-30T22:04:11.696Z,55.73
2024-01-30T22:06:56.830Z,56.65
2024-01-30T22:09:41.839Z,57.10
2024-01-30T22:12:26.985Z,56.55
2024-01-30T22:15:12.244Z,55.55
2024-01-30T22:17:57.505Z,56.81
2024-01-30T22:20:42.925Z,56.48
2024-01-30T22:23:28.103Z,56.75
2024-01-30T22:26:13.469Z,56.89
2024-01-30T22:28:58.783Z,56.68
2024-01-30T22:31:44.002Z,57.29
2024-01-30T22:34:29.358Z,56.72
2024-01-30T22:37:14.210Z,56.87
2024-01-30T22:39:59.513Z,55.82
2024-01-30T22:42:44.686Z,57.53
2024-01-30T22:45:29.932Z,58.37
2024-01-30T22:48:15.073Z,57.47
2024-01-30T22:51:00.328Z,56.50
2024-01-30T22:53:45.365Z,56.66
2024-01-30T22:56:30.488Z,56.02
2024-01-30T22:59:15.408Z,56.78
2024-01-30T23:02:00.553Z,56.21
2024-01-30T23:04:45.617Z,56.38
2024-01-30T23:07:30.801Z,57.59
2024-01-30T23:10:16.000Z,56.60
2024-01-30T23:13:01.321Z,57.30
2024-01-30T23:15:46.580Z,56.58
2024-01-30T23:18:31.878Z,57.81
2024-01-30T23:21:17.086Z,56.60
2024-01-30T23:24:02.490Z,58.34
2024-01-30T23:26:47.649Z,59.15
2024-01-30T23:29:32.920Z,58.16
2024-01-30T23:32:25.732Z,58.30
2024-01-30T23:35:15.806Z,57.15
2024-01-30T23:38:00.841Z,57.59
2024-01-30T23:40:46.027Z,57.75
2024-01-30T23:43:31.278Z,57.16
2024-01-30T23:46:16.434Z,56.25
2024-01-30T23:49:01.906Z,56.51
2024-01-30T23:51:46.885Z,56.49
2024-01-30T23:54:32.216Z,56.39
2024-01-30T23:57:17.442Z,58.20
